Time;durP1;ratioP1;P1;durP2;ratioP2;P2;SDS_P1;SDS_P2;PMS_P1;PMS_P2;Temp;Humidity;BMP_temperature;BMP_pressure;BME280_temperature;BME280_humidity;BME280_pressure;Samples;Min_cycle;Max_cycle;Signal;HPM_P1;HPM_P2
2021/01/01 00:01:45;;;;;;;94.67;58.67;;;7.60;71.60;;;;;;4987379;28;20058;-73
2021/01/01 00:04:11;;;;;;;91.00;56.07;;;7.60;71.40;;;;;;4989727;28;20026;-74
2021/01/01 00:06:38;;;;;;;84.03;51.42;;;7.60;71.20;;;;;;4989784;28;20045;-73
2021/01/01 00:09:05;;;;;;;82.05;50.22;;;7.60;71.20;;;;;;4974029;28;20121;-74
2021/01/01 00:11:31;;;;;;;82.72;50.83;;;7.60;71.20;;;;;;4991481;28;20033;-74
2021/01/01 00:13:57;;;;;;;82.63;52.58;;;7.10;71.10;;;;;;4990660;28;20500;-74
2021/01/01 00:16:22;;;;;;;78.50;49.92;;;7.60;71.50;;;;;;4991659;28;20034;-75
2021/01/01 00:18:48;;;;;;;69.70;44.17;;;7.60;71.50;;;;;;4991000;28;20045;-74
2021/01/01 00:21:14;;;;;;;75.15;46.17;;;7.60;71.40;;;;;;4992254;28;20050;-75
2021/01/01 00:23:40;;;;;;;64.80;42.13;;;7.70;71.30;;;;;;4992900;28;20023;-74
2021/01/01 00:26:10;;;;;;;79.22;45.33;;;7.70;71.20;;;;;;4974659;28;20035;-75
2021/01/01 00:28:46;;;;;;;82.75;47.50;;;7.70;71.10;;;;;;4976208;28;20093;-74
2021/01/01 00:31:20;;;;;;;78.93;45.92;;;7.70;71.10;;;;;;4991970;28;20031;-74
2021/01/01 00:33:47;;;;;;;69.78;42.03;;;7.50;71.60;;;;;;4991499;28;20038;-75
2021/01/01 00:36:13;;;;;;;86.57;58.33;;;7.30;72.10;;;;;;4991176;28;20030;-78
2021/01/01 00:38:46;;;;;;;72.20;48.80;;;7.30;72.40;;;;;;4968327;28;20100;-84
2021/01/01 00:41:19;;;;;;;118.50;79.28;;;7.20;72.70;;;;;;4992454;28;20137;-76
2021/01/01 00:43:51;;;;;;;138.27;84.63;;;7.20;72.80;;;;;;4990616;28;20019;-72
2021/01/01 00:46:17;;;;;;;152.60;99.85;;;7.20;72.80;;;;;;4986218;28;20023;-76
2021/01/01 00:48:42;;;;;;;127.03;86.05;;;7.30;72.70;;;;;;4993015;28;20061;-76
2021/01/01 00:51:08;;;;;;;118.20;71.57;;;7.40;72.40;;;;;;4992508;28;20030;-76
2021/01/01 00:53:34;;;;;;;93.32;57.92;;;7.50;72.10;;;;;;4989221;28;20244;-73
2021/01/01 00:55:59;;;;;;;147.70;93.55;;;7.50;71.80;;;;;;4990104;28;20146;-75
2021/01/01 00:58:25;;;;;;;116.53;71.47;;;7.60;71.70;;;;;;4990527;28;20036;-75
2021/01/01 01:00:51;;;;;;;118.82;69.40;;;7.50;71.60;;;;;;4972438;28;20117;-79
2021/01/01 01:03:18;;;;;;;140.07;82.27;;;7.50;71.80;;;;;;4991122;28;20038;-79
2021/01/01 01:05:44;;;;;;;175.65;102.35;;;7.40;72.00;;;;;;4989632;28;20468;-77
2021/01/01 01:08:09;;;;;;;149.18;83.50;;;7.40;72.20;;;;;;4973658;28;20070;-78
2021/01/01 01:10:35;;;;;;;165.87;90.40;;;7.40;72.20;;;;;;4989147;28;20037;-83
2021/01/01 01:13:03;;;;;;;152.50;89.13;;;7.30;72.30;;;;;;4988191;28;20034;-80
2021/01/01 01:15:29;;;;;;;148.55;82.90;;;7.20;72.40;;;;;;4989682;28;20081;-79
2021/01/01 01:17:54;;;;;;;157.02;86.43;;;7.20;72.50;;;;;;4991054;28;20062;-77
2021/01/01 01:20:20;;;;;;;152.03;85.70;;;7.20;72.50;;;;;;4993951;28;20069;-80
2021/01/01 01:22:46;;;;;;;131.18;75.57;;;7.20;72.50;;;;;;4976052;28;20094;-84
2021/01/01 01:25:12;;;;;;;119.30;71.23;;;7.20;72.60;;;;;;4993004;28;20041;-87
2021/01/01 01:27:37;;;;;;;124.00;73.18;;;7.10;72.60;;;;;;4989724;28;20052;-78
2021/01/01 01:30:04;;;;;;;129.38;71.15;;;7.10;72.70;;;;;;4990771;28;20038;-80
2021/01/01 01:32:30;;;;;;;122.13;69.17;;;7.10;72.70;;;;;;4992262;28;20432;-79
2021/01/01 01:34:55;;;;;;;112.60;63.33;;;7.10;72.60;;;;;;4970509;28;20520;-76
2021/01/01 01:37:21;;;;;;;105.83;64.57;;;7.20;72.40;;;;;;4984302;28;20117;-81
2021/01/01 01:39:46;;;;;;;109.17;64.57;;;7.20;72.20;;;;;;4967189;28;20042;-78
2021/01/01 01:42:12;;;;;;;109.57;65.90;;;7.20;71.80;;;;;;4991016;28;20034;-82
2021/01/01 01:44:38;;;;;;;98.37;59.07;;;7.30;71.60;;;;;;4991178;28;20110;-78
2021/01/01 01:47:04;;;;;;;105.87;61.40;;;7.30;71.50;;;;;;4991186;28;20519;-79
2021/01/01 01:49:30;;;;;;;108.93;63.97;;;7.30;71.30;;;;;;4989742;28;20030;-79
2021/01/01 01:51:56;;;;;;;105.33;64.23;;;7.30;71.10;;;;;;4988493;28;20528;-80
2021/01/01 01:54:22;;;;;;;108.70;61.63;;;7.20;71.10;;;;;;4990501;28;20092;-76
2021/01/01 01:56:48;;;;;;;108.37;60.57;;;7.20;71.00;;;;;;4988949;28;20035;-76
2021/01/01 01:59:17;;;;;;;117.30;64.87;;;7.20;71.00;;;;;;4992351;28;20145;-77
2021/01/01 02:01:42;;;;;;;105.27;57.67;;;7.20;71.10;;;;;;4992533;28;20030;-78
2021/01/01 02:04:08;;;;;;;94.87;53.60;;;7.20;71.20;;;;;;4991706;28;20310;-77
2021/01/01 02:06:34;;;;;;;97.07;56.33;;;7.10;71.20;;;;;;4992638;28;20540;-79
2021/01/01 02:09:01;;;;;;;100.63;55.43;;;7.20;71.20;;;;;;4990574;28;20166;-79
2021/01/01 02:11:28;;;;;;;98.40;55.50;;;7.10;71.20;;;;;;4991989;28;20038;-81
2021/01/01 02:13:56;;;;;;;108.83;60.73;;;7.10;71.20;;;;;;4992571;28;20038;-81
2021/01/01 02:16:23;;;;;;;104.18;56.95;;;7.10;71.10;;;;;;4992138;28;20037;-77
2021/01/01 02:18:49;;;;;;;97.63;55.53;;;7.00;71.00;;;;;;4979325;28;20096;-80
2021/01/01 02:21:16;;;;;;;119.97;67.80;;;7.00;71.20;;;;;;4959947;28;20130;-79
2021/01/01 02:23:42;;;;;;;112.00;66.70;;;7.00;71.30;;;;;;4993471;28;20122;-79
2021/01/01 02:26:07;;;;;;;100.33;60.87;;;7.00;71.20;;;;;;4986058;28;20469;-79
2021/01/01 02:28:33;;;;;;;100.03;61.43;;;7.00;71.30;;;;;;4994539;28;20038;-80
2021/01/01 02:30:59;;;;;;;108.03;63.77;;;6.90;71.40;;;;;;4992305;28;20041;-83
2021/01/01 02:33:25;;;;;;;129.63;74.10;;;6.90;71.50;;;;;;4994487;28;20058;-76
2021/01/01 02:35:51;;;;;;;114.60;65.10;;;6.90;71.50;;;;;;4993910;28;20045;-78
2021/01/01 02:38:17;;;;;;;101.22;59.83;;;6.80;71.60;;;;;;4996275;28;20034;-76
2021/01/01 02:40:43;;;;;;;106.17;56.63;;;6.70;71.60;;;;;;4996912;28;20039;-75
2021/01/01 02:43:08;;;;;;;99.87;61.33;;;6.70;72.00;;;;;;4992983;28;20459;-82
2021/01/01 02:45:37;;;;;;;99.77;57.27;;;6.60;72.30;;;;;;4991507;28;20108;-73
2021/01/01 02:48:20;;;;;;;95.80;51.30;;;6.60;72.50;;;;;;4991533;28;20100;-73
2021/01/01 02:50:46;;;;;;;110.67;61.57;;;6.60;72.40;;;;;;4991752;28;20117;-74
2021/01/01 02:53:12;;;;;;;109.93;63.60;;;6.60;72.10;;;;;;5004031;28;20025;-74
2021/01/01 02:55:49;;;;;;;102.17;58.07;;;6.60;72.10;;;;;;4993380;28;20523;-74
2021/01/01 02:58:15;;;;;;;97.60;57.53;;;6.60;72.20;;;;;;4992476;28;20030;-73
2021/01/01 03:00:46;;;;;;;89.77;53.03;;;6.50;72.20;;;;;;4991820;28;20038;-74
2021/01/01 03:03:12;;;;;;;98.00;54.93;;;6.50;72.20;;;;;;4992589;28;20042;-74
2021/01/01 03:05:37;;;;;;;102.43;58.73;;;6.50;72.20;;;;;;4993640;28;20039;-73
2021/01/01 03:08:06;;;;;;;107.20;59.17;;;6.50;72.10;;;;;;4992639;28;20042;-73
2021/01/01 03:10:32;;;;;;;100.83;59.00;;;6.50;71.80;;;;;;4991621;28;20050;-74
2021/01/01 03:12:57;;;;;;;93.60;54.40;;;6.50;71.80;;;;;;4991148;28;20043;-74
2021/01/01 03:15:23;;;;;;;104.87;57.77;;;6.50;71.60;;;;;;4992211;28;20112;-73
2021/01/01 03:17:49;;;;;;;105.93;58.13;;;6.50;71.40;;;;;;4985662;28;20022;-74
2021/01/01 03:20:15;;;;;;;98.23;56.23;;;6.40;71.30;;;;;;4989519;28;20133;-73
2021/01/01 03:22:41;;;;;;;104.77;59.10;;;6.40;71.30;;;;;;4989922;28;20519;-74
2021/01/01 03:25:15;;;;;;;94.70;56.40;;;6.40;71.40;;;;;;4975253;28;20035;-73
2021/01/01 03:27:41;;;;;;;97.50;56.07;;;6.30;71.30;;;;;;4986169;28;20034;-73
2021/01/01 03:30:08;;;;;;;101.50;57.20;;;6.30;71.50;;;;;;4974948;28;20034;-73
2021/01/01 03:32:34;;;;;;;101.77;57.57;;;6.30;71.60;;;;;;4989689;28;20100;-71
2021/01/01 03:34:59;;;;;;;101.30;59.13;;;6.30;71.80;;;;;;4989690;28;20039;-73
2021/01/01 03:37:31;;;;;;;108.23;65.13;;;6.30;71.80;;;;;;4988765;28;20082;-73
2021/01/01 03:40:01;;;;;;;106.03;59.73;;;6.40;71.80;;;;;;4973690;28;20037;-73
2021/01/01 03:42:27;;;;;;;114.23;66.73;;;6.40;71.70;;;;;;4988340;28;20034;-73
2021/01/01 03:44:53;;;;;;;129.40;73.33;;;6.40;71.80;;;;;;4987208;28;20038;-73
2021/01/01 03:47:21;;;;;;;131.67;78.30;;;6.40;72.10;;;;;;4991157;28;20046;-74
2021/01/01 03:49:47;;;;;;;131.33;77.13;;;6.40;72.00;;;;;;4974052;28;20224;-73
2021/01/01 03:52:13;;;;;;;128.13;74.37;;;6.40;72.00;;;;;;4991071;28;20023;-71
2021/01/01 03:54:39;;;;;;;121.30;73.80;;;6.40;71.90;;;;;;4993233;28;20069;-72
2021/01/01 03:57:05;;;;;;;130.43;76.87;;;6.40;71.90;;;;;;4990823;28;20058;-70
2021/01/01 03:59:31;;;;;;;120.50;71.80;;;6.40;72.00;;;;;;4990759;28;20030;-71
2021/01/01 04:01:56;;;;;;;125.73;74.00;;;6.40;72.00;;;;;;4969884;28;20027;-71
2021/01/01 04:04:22;;;;;;;118.63;72.03;;;6.30;71.80;;;;;;4978105;28;20031;-71
2021/01/01 04:06:48;;;;;;;124.90;72.37;;;6.40;71.80;;;;;;4984842;28;20034;-71
2021/01/01 04:09:13;;;;;;;121.27;73.80;;;6.30;71.70;;;;;;4991366;28;20567;-71
2021/01/01 04:11:39;;;;;;;123.73;71.63;;;6.30;71.80;;;;;;4991224;28;20452;-71
2021/01/01 04:14:05;;;;;;;142.63;81.60;;;6.30;72.10;;;;;;4983692;28;20109;-72
2021/01/01 04:16:31;;;;;;;132.93;79.00;;;6.30;72.30;;;;;;4974234;28;20117;-71
2021/01/01 04:18:58;;;;;;;145.33;82.93;;;6.40;72.50;;;;;;4989340;28;20056;-71
2021/01/01 04:21:24;;;;;;;147.93;83.97;;;6.40;72.70;;;;;;4988816;28;20070;-71
2021/01/01 04:23:49;;;;;;;168.57;94.33;;;6.40;72.80;;;;;;4991803;28;20053;-72
2021/01/01 04:26:15;;;;;;;166.93;96.43;;;6.40;72.80;;;;;;4990871;28;20456;-72
2021/01/01 04:28:40;;;;;;;150.73;88.47;;;6.40;72.80;;;;;;4974354;28;20038;-71
2021/01/01 04:31:06;;;;;;;144.37;84.83;;;6.30;73.00;;;;;;4992315;28;20061;-72
2021/01/01 04:33:32;;;;;;;145.60;87.63;;;6.30;73.20;;;;;;4991342;28;20499;-71
2021/01/01 04:35:58;;;;;;;141.20;82.90;;;6.40;73.30;;;;;;4989535;28;20034;-71
2021/01/01 04:38:24;;;;;;;172.00;91.40;;;6.40;73.50;;;;;;4972827;28;20053;-71
2021/01/01 04:40:52;;;;;;;153.67;88.90;;;6.40;73.30;;;;;;4985894;28;20491;-71
2021/01/01 04:43:18;;;;;;;150.10;85.93;;;6.40;73.40;;;;;;4980513;28;20042;-71
2021/01/01 04:45:44;;;;;;;154.50;90.57;;;6.40;73.60;;;;;;4990507;28;20328;-71
2021/01/01 04:48:10;;;;;;;151.83;89.50;;;6.40;73.70;;;;;;4991343;28;20043;-71
2021/01/01 04:50:36;;;;;;;150.07;85.77;;;6.30;73.90;;;;;;4989184;28;20154;-71
2021/01/01 04:53:02;;;;;;;152.77;88.87;;;6.30;74.00;;;;;;4990807;28;20038;-72
2021/01/01 04:55:32;;;;;;;144.77;84.03;;;6.30;74.00;;;;;;4990562;28;20166;-71
2021/01/01 04:57:57;;;;;;;151.57;89.93;;;6.40;73.90;;;;;;4990742;28;20472;-71
2021/01/01 05:00:23;;;;;;;144.67;86.10;;;6.40;73.80;;;;;;4990064;28;20130;-71
2021/01/01 05:02:49;;;;;;;151.43;87.50;;;6.30;73.70;;;;;;4989878;28;20554;-71
2021/01/01 05:05:14;;;;;;;140.37;81.07;;;6.30;73.90;;;;;;4990173;28;20084;-72
2021/01/01 05:07:40;;;;;;;134.87;81.67;;;6.20;74.00;;;;;;4971389;28;20093;-71
2021/01/01 05:10:10;;;;;;;144.30;83.00;;;6.20;74.10;;;;;;4990907;28;20030;-72
2021/01/01 05:12:35;;;;;;;147.17;85.37;;;6.10;74.20;;;;;;4972703;28;20038;-71
2021/01/01 05:15:01;;;;;;;147.13;84.50;;;6.10;74.20;;;;;;4991176;28;20449;-72
2021/01/01 05:17:34;;;;;;;142.73;79.27;;;6.00;74.50;;;;;;4989641;28;20133;-72
2021/01/01 05:20:10;;;;;;;129.40;77.88;;;6.00;74.70;;;;;;4983481;28;20136;-72
2021/01/01 05:22:36;;;;;;;130.33;79.87;;;5.90;74.60;;;;;;4990694;28;20456;-72
2021/01/01 05:25:19;;;;;;;133.70;75.53;;;6.00;74.60;;;;;;4990796;28;20026;-71
2021/01/01 05:27:48;;;;;;;133.00;79.40;;;6.00;74.40;;;;;;4991504;28;20468;-72
2021/01/01 05:30:17;;;;;;;144.37;83.53;;;6.10;74.10;;;;;;4990461;28;20124;-71
2021/01/01 05:32:53;;;;;;;144.53;84.17;;;6.10;73.90;;;;;;4990052;28;20441;-72
2021/01/01 05:35:29;;;;;;;140.07;80.43;;;6.10;73.60;;;;;;4989482;28;20436;-72
2021/01/01 05:37:55;;;;;;;130.07;74.47;;;6.10;73.50;;;;;;4989626;28;20113;-71
2021/01/01 05:40:33;;;;;;;132.83;75.50;;;6.10;73.50;;;;;;4990420;28;20026;-71
2021/01/01 05:43:23;;;;;;;122.33;73.67;;;6.10;73.40;;;;;;4975649;28;20027;-71
2021/01/01 05:45:51;;;;;;;128.23;78.60;;;6.10;73.40;;;;;;4988160;28;20062;-71
2021/01/01 05:48:20;;;;;;;124.67;75.93;;;6.10;73.40;;;;;;4988252;28;20077;-72
2021/01/01 05:51:03;;;;;;;129.20;75.10;;;6.10;73.60;;;;;;4989124;28;20498;-71
2021/01/01 05:53:29;;;;;;;120.73;68.73;;;6.00;73.50;;;;;;4985719;28;20031;-72
2021/01/01 05:56:07;;;;;;;119.37;72.13;;;6.10;73.50;;;;;;4988816;28;20030;-72
2021/01/01 05:58:32;;;;;;;131.93;72.67;;;6.20;73.60;;;;;;4989818;28;20049;-71
2021/01/01 06:01:00;;;;;;;125.93;72.27;;;6.10;73.40;;;;;;4971650;28;20062;-71
2021/01/01 06:03:34;;;;;;;118.60;72.27;;;6.10;73.20;;;;;;4989768;28;20357;-71
2021/01/01 06:06:06;;;;;;;122.83;70.60;;;6.10;73.10;;;;;;4987170;28;20054;-71
2021/01/01 06:08:33;;;;;;;129.67;76.60;;;6.10;72.90;;;;;;4988718;28;20646;-71
2021/01/01 06:11:06;;;;;;;116.33;67.50;;;6.10;72.80;;;;;;4987853;28;20030;-71
2021/01/01 06:13:36;;;;;;;114.53;67.07;;;6.00;73.10;;;;;;4969816;28;20443;-72
2021/01/01 06:16:04;;;;;;;106.80;63.80;;;6.00;73.30;;;;;;4975295;28;20030;-71
2021/01/01 06:18:29;;;;;;;130.07;72.27;;;5.90;73.90;;;;;;4985469;28;20023;-71
2021/01/01 06:21:04;;;;;;;120.57;72.27;;;5.70;74.50;;;;;;4986617;28;20368;-72
2021/01/01 06:23:37;;;;;;;122.17;70.00;;;5.60;75.00;;;;;;4983085;28;20031;-72
2021/01/01 06:26:05;;;;;;;116.50;67.85;;;5.60;75.30;;;;;;4989406;28;20034;-72
2021/01/01 06:28:32;;;;;;;119.87;70.43;;;5.70;75.40;;;;;;4990088;28;20050;-71
2021/01/01 06:31:08;;;;;;;125.73;73.90;;;5.70;75.10;;;;;;4990635;28;20478;-72
2021/01/01 06:33:34;;;;;;;113.37;68.23;;;5.80;74.90;;;;;;4990315;28;20035;-71
2021/01/01 06:36:00;;;;;;;111.70;64.93;;;5.90;74.80;;;;;;4989047;28;20385;-71
2021/01/01 06:38:42;;;;;;;116.17;68.97;;;5.90;74.70;;;;;;4990759;28;20118;-71
2021/01/01 06:41:44;;;;;;;122.17;70.50;;;5.90;74.60;;;;;;4989098;28;20027;-71
2021/01/01 06:44:36;;;;;;;111.40;64.20;;;6.00;74.40;;;;;;4983463;28;20447;-72
2021/01/01 06:47:08;;;;;;;118.93;65.17;;;6.10;74.30;;;;;;5001936;28;20070;-74
2021/01/01 06:49:35;;;;;;;113.97;66.90;;;6.10;74.20;;;;;;4990316;28;20058;-73
2021/01/01 06:52:24;;;;;;;112.80;66.83;;;6.10;74.10;;;;;;4988360;28;20030;-71
2021/01/01 06:55:00;;;;;;;123.87;68.43;;;6.10;74.10;;;;;;4987546;28;20035;-71
2021/01/01 06:57:28;;;;;;;109.77;62.10;;;6.10;74.20;;;;;;4990332;28;20034;-71
2021/01/01 06:59:58;;;;;;;104.63;62.20;;;6.10;74.30;;;;;;4990338;28;20030;-71
2021/01/01 07:02:29;;;;;;;115.10;64.20;;;6.10;74.40;;;;;;4989954;28;20041;-71
2021/01/01 07:04:58;;;;;;;114.03;64.47;;;6.20;74.30;;;;;;4992793;28;20550;-71
2021/01/01 07:07:43;;;;;;;119.77;68.40;;;6.20;74.30;;;;;;4994140;28;20030;-71
2021/01/01 07:10:35;;;;;;;110.00;63.47;;;6.20;74.10;;;;;;4989672;28;20046;-71
2021/01/01 07:13:19;;;;;;;125.30;69.43;;;6.20;74.00;;;;;;4994040;28;20066;-71
2021/01/01 07:15:44;;;;;;;121.32;69.03;;;6.30;73.90;;;;;;4992924;28;20054;-71
2021/01/01 07:18:10;;;;;;;115.77;65.93;;;6.30;73.80;;;;;;4990821;28;20065;-71
2021/01/01 07:20:45;;;;;;;108.93;66.20;;;6.30;73.70;;;;;;4979884;28;20046;-71
2021/01/01 07:23:11;;;;;;;120.70;67.43;;;6.30;73.60;;;;;;4991177;28;20104;-71
2021/01/01 07:25:38;;;;;;;115.07;68.23;;;6.30;73.60;;;;;;4989703;28;20042;-71
2021/01/01 07:28:06;;;;;;;118.80;70.43;;;6.30;73.60;;;;;;4992048;28;20105;-72
2021/01/01 07:30:34;;;;;;;121.10;69.93;;;6.30;73.50;;;;;;4994314;28;20037;-72
2021/01/01 07:33:06;;;;;;;123.67;70.27;;;6.40;73.60;;;;;;4992321;28;20037;-72
2021/01/01 07:35:34;;;;;;;141.20;77.03;;;6.40;73.60;;;;;;4987909;28;20129;-71
2021/01/01 07:38:04;;;;;;;136.83;75.63;;;6.40;73.70;;;;;;4989966;28;20038;-72
2021/01/01 07:40:38;;;;;;;128.70;75.27;;;6.40;73.70;;;;;;4993865;28;20030;-71
2021/01/01 07:43:09;;;;;;;126.57;72.60;;;6.40;73.70;;;;;;4993861;28;20030;-72
2021/01/01 07:45:35;;;;;;;128.97;77.07;;;6.50;73.90;;;;;;4991878;28;20030;-72
2021/01/01 07:48:04;;;;;;;134.73;74.33;;;6.50;73.80;;;;;;4991887;28;20173;-72
2021/01/01 07:50:34;;;;;;;124.20;73.80;;;6.50;73.80;;;;;;4989944;28;20041;-71
2021/01/01 07:53:28;;;;;;;126.03;77.07;;;6.50;73.70;;;;;;4988157;28;20142;-72
2021/01/01 07:56:05;;;;;;;136.95;77.10;;;6.50;73.50;;;;;;4987817;28;20030;-71
2021/01/01 07:58:31;;;;;;;134.07;77.60;;;6.50;73.50;;;;;;4991124;28;20506;-72
2021/01/01 08:01:01;;;;;;;123.83;68.83;;;6.50;73.70;;;;;;4991846;28;20050;-72
2021/01/01 08:03:27;;;;;;;126.50;71.67;;;6.50;73.90;;;;;;4993282;28;20030;-71
2021/01/01 08:05:53;;;;;;;127.07;73.17;;;6.50;73.90;;;;;;4990419;28;20046;-72
2021/01/01 08:08:23;;;;;;;128.60;73.13;;;6.60;74.00;;;;;;4992188;28;20062;-72
2021/01/01 08:10:54;;;;;;;125.03;73.83;;;6.60;73.90;;;;;;4991850;28;20392;-72
2021/01/01 08:13:32;;;;;;;117.00;64.97;;;6.60;73.80;;;;;;4991331;28;20498;-72
2021/01/01 08:16:15;;;;;;;126.93;70.80;;;6.60;73.80;;;;;;4988001;28;20113;-72
2021/01/01 08:18:46;;;;;;;121.73;69.97;;;6.60;74.00;;;;;;4989611;28;20116;-71
2021/01/01 08:21:15;;;;;;;142.07;71.40;;;6.60;74.00;;;;;;4989755;28;20125;-71
2021/01/01 08:24:05;;;;;;;114.43;65.97;;;6.60;74.10;;;;;;4991706;28;20440;-72
2021/01/01 08:26:42;;;;;;;115.67;64.50;;;6.60;74.10;;;;;;4991823;28;20030;-71
2021/01/01 08:29:11;;;;;;;106.23;64.67;;;6.70;74.20;;;;;;4992892;28;20042;-72
2021/01/01 08:31:38;;;;;;;107.87;63.07;;;6.70;74.20;;;;;;4992445;28;20114;-72
2021/01/01 08:34:04;;;;;;;105.63;63.73;;;6.70;74.30;;;;;;4986005;28;20034;-72
2021/01/01 08:36:32;;;;;;;109.50;62.27;;;6.60;74.40;;;;;;4990888;28;20054;-71
2021/01/01 08:39:12;;;;;;;118.43;62.87;;;6.60;74.70;;;;;;4992884;28;20137;-72
2021/01/01 08:41:48;;;;;;;95.63;55.63;;;6.60;74.80;;;;;;4986418;28;20026;-71
2021/01/01 08:44:16;;;;;;;95.40;55.37;;;6.60;74.80;;;;;;4992541;28;20068;-71
2021/01/01 08:46:42;;;;;;;106.50;61.97;;;6.70;74.70;;;;;;4987044;28;20034;-73
2021/01/01 08:49:19;;;;;;;91.07;56.53;;;6.80;74.60;;;;;;4989871;28;20122;-72
2021/01/01 08:51:54;;;;;;;106.37;59.33;;;6.80;74.50;;;;;;4990896;28;20034;-72
2021/01/01 08:54:24;;;;;;;101.87;58.87;;;6.80;74.60;;;;;;4992492;28;20037;-71
2021/01/01 08:56:59;;;;;;;94.33;51.97;;;6.80;74.70;;;;;;4999497;28;20058;-72
2021/01/01 08:59:26;;;;;;;90.63;52.40;;;6.80;74.80;;;;;;4991707;28;20361;-72
2021/01/01 09:01:53;;;;;;;95.10;53.83;;;6.80;74.80;;;;;;4992126;28;20036;-73
2021/01/01 09:04:28;;;;;;;90.70;50.30;;;6.80;74.90;;;;;;4989820;28;20117;-72
2021/01/01 09:06:58;;;;;;;95.33;51.77;;;6.90;74.80;;;;;;4988157;28;20057;-72
2021/01/01 09:09:29;;;;;;;90.85;51.28;;;6.90;74.90;;;;;;4990757;28;20036;-73
2021/01/01 09:12:16;;;;;;;90.60;51.93;;;7.00;74.80;;;;;;4990737;28;20035;-72
2021/01/01 09:14:52;;;;;;;78.27;46.90;;;7.00;74.80;;;;;;4991982;28;20109;-72
2021/01/01 09:17:19;;;;;;;86.27;48.30;;;7.00;74.80;;;;;;4982726;28;20089;-73
2021/01/01 09:19:45;;;;;;;76.88;45.22;;;7.10;74.70;;;;;;4989420;28;20046;-72
2021/01/01 09:22:20;;;;;;;79.47;45.20;;;7.20;74.70;;;;;;4988603;28;20034;-73
2021/01/01 09:24:47;;;;;;;74.43;44.15;;;7.30;74.50;;;;;;4990216;28;20902;-72
2021/01/01 09:27:13;;;;;;;66.70;38.50;;;7.30;74.30;;;;;;4991779;28;20210;-73
2021/01/01 09:29:39;;;;;;;64.23;40.83;;;7.30;74.10;;;;;;4989037;28;20038;-72
2021/01/01 09:32:09;;;;;;;78.07;39.60;;;7.20;74.20;;;;;;4992009;28;20030;-72
2021/01/01 09:34:35;;;;;;;65.28;39.90;;;7.10;74.10;;;;;;4989318;28;20469;-72
2021/01/01 09:37:11;;;;;;;63.67;35.58;;;7.30;74.10;;;;;;4989863;28;20034;-72
2021/01/01 09:39:37;;;;;;;65.88;39.00;;;7.40;74.00;;;;;;4989008;28;20516;-72
2021/01/01 09:42:03;;;;;;;56.20;32.88;;;7.40;73.70;;;;;;4991571;28;20472;-72
2021/01/01 09:44:29;;;;;;;58.58;35.20;;;7.50;73.60;;;;;;4991683;28;20023;-73
2021/01/01 09:46:55;;;;;;;57.88;35.45;;;7.60;73.40;;;;;;4988110;28;20042;-73
2021/01/01 09:49:20;;;;;;;57.30;34.35;;;7.80;73.10;;;;;;4989784;28;20068;-73
2021/01/01 09:51:48;;;;;;;58.13;34.83;;;7.90;72.90;;;;;;4990007;28;20129;-72
2021/01/01 09:54:14;;;;;;;52.00;31.15;;;8.00;72.70;;;;;;4990540;28;20038;-72
2021/01/01 09:56:40;;;;;;;52.58;29.35;;;8.20;72.50;;;;;;4990789;28;20088;-72
2021/01/01 09:59:05;;;;;;;43.60;27.50;;;8.10;72.20;;;;;;4990767;28;20113;-72
2021/01/01 10:01:32;;;;;;;46.15;27.60;;;8.00;72.20;;;;;;4989658;28;20030;-73
2021/01/01 10:03:58;;;;;;;40.85;26.13;;;8.00;72.60;;;;;;4989646;28;20057;-73
2021/01/01 10:06:24;;;;;;;51.00;26.73;;;8.00;72.70;;;;;;4989902;28;20038;-72
2021/01/01 10:08:50;;;;;;;42.65;26.35;;;8.00;72.70;;;;;;4991077;28;20046;-72
2021/01/01 10:11:16;;;;;;;41.90;25.10;;;8.10;72.70;;;;;;4990216;28;20045;-72
2021/01/01 10:13:42;;;;;;;48.70;26.05;;;8.20;72.60;;;;;;4988969;28;20066;-72
2021/01/01 10:16:09;;;;;;;36.78;23.67;;;8.30;72.40;;;;;;4990551;28;20034;-72
2021/01/01 10:18:35;;;;;;;39.50;23.67;;;8.40;72.20;;;;;;4990482;28;20093;-73
2021/01/01 10:21:02;;;;;;;43.70;24.02;;;8.40;72.00;;;;;;4988083;28;20197;-73
2021/01/01 10:23:28;;;;;;;37.45;24.02;;;8.40;71.80;;;;;;4990795;28;20054;-74
2021/01/01 10:25:53;;;;;;;34.70;20.58;;;8.40;72.00;;;;;;4989800;28;20034;-74
2021/01/01 10:28:19;;;;;;;33.95;20.80;;;8.40;72.00;;;;;;4990796;28;20137;-74
2021/01/01 10:30:45;;;;;;;32.88;20.60;;;8.40;71.90;;;;;;4983103;28;20484;-73
2021/01/01 10:33:11;;;;;;;35.83;21.15;;;8.30;71.90;;;;;;4990063;28;20027;-75
2021/01/01 10:35:37;;;;;;;33.92;19.58;;;8.30;72.00;;;;;;4990146;28;20047;-74
2021/01/01 10:38:03;;;;;;;34.60;21.80;;;8.40;72.20;;;;;;4994191;28;20026;-74
2021/01/01 10:40:29;;;;;;;31.83;19.83;;;8.50;72.00;;;;;;4993781;28;20042;-74
2021/01/01 10:42:57;;;;;;;39.75;21.40;;;8.60;71.60;;;;;;4976792;28;20161;-74
2021/01/01 10:45:22;;;;;;;29.98;18.73;;;8.60;71.80;;;;;;4990057;28;20034;-73
2021/01/01 10:47:48;;;;;;;30.35;18.48;;;8.70;71.60;;;;;;4976736;28;20042;-74
2021/01/01 10:50:14;;;;;;;32.05;18.88;;;8.70;71.30;;;;;;4986967;28;20045;-74
2021/01/01 10:52:40;;;;;;;33.00;20.02;;;8.60;71.50;;;;;;4994048;28;20109;-74
2021/01/01 10:55:09;;;;;;;26.67;16.05;;;8.50;71.90;;;;;;4994673;28;20381;-75
2021/01/01 10:57:37;;;;;;;28.27;17.35;;;8.60;72.30;;;;;;4994539;28;20041;-74
2021/01/01 11:00:08;;;;;;;33.90;18.60;;;8.80;72.30;;;;;;4993936;28;20469;-74
2021/01/01 11:02:34;;;;;;;29.98;17.80;;;9.00;71.80;;;;;;4993261;28;20109;-74
2021/01/01 11:04:59;;;;;;;26.60;15.98;;;9.10;71.70;;;;;;4993283;28;20451;-74
2021/01/01 11:07:25;;;;;;;28.23;17.08;;;9.20;71.40;;;;;;4990697;28;20072;-72
2021/01/01 11:09:51;;;;;;;28.17;17.48;;;9.20;71.10;;;;;;4993079;28;20036;-72
2021/01/01 11:12:16;;;;;;;29.33;16.20;;;9.20;71.30;;;;;;4993714;28;20030;-73
2021/01/01 12:21:36;;;;;;;20.17;11.30;;;9.50;71.70;;;;;;4990254;28;20084;-72
2021/01/01 12:26:42;;;;;;;20.88;11.70;;;9.70;71.70;;;;;;4989303;28;20141;-71
2021/01/01 12:29:08;;;;;;;20.48;13.13;;;9.80;71.50;;;;;;4991956;28;20042;-72
2021/01/01 12:31:35;;;;;;;21.83;12.80;;;9.90;71.20;;;;;;4990141;28;20022;-72
2021/01/01 12:34:00;;;;;;;24.08;14.15;;;10.00;71.10;;;;;;4985535;28;20118;-71
2021/01/01 12:36:29;;;;;;;20.65;12.38;;;10.10;70.70;;;;;;4989535;28;20109;-70
2021/01/01 12:38:54;;;;;;;18.90;11.52;;;10.10;70.70;;;;;;4990937;28;20034;-71
2021/01/01 12:41:20;;;;;;;18.40;11.20;;;10.00;70.30;;;;;;4989371;28;20029;-71
2021/01/01 12:43:46;;;;;;;15.63;10.23;;;9.90;70.20;;;;;;4990551;28;20054;-71
2021/01/01 12:46:14;;;;;;;16.80;10.77;;;9.90;70.50;;;;;;4990713;28;20038;-71
2021/01/01 12:48:40;;;;;;;16.55;9.95;;;9.80;70.70;;;;;;4990984;28;20050;-71
2021/01/01 12:51:08;;;;;;;18.13;10.55;;;9.70;70.70;;;;;;4988026;28;20080;-71
2021/01/01 12:53:34;;;;;;;19.20;10.50;;;9.80;70.80;;;;;;4991541;28;20054;-71
2021/01/01 12:56:03;;;;;;;17.05;10.80;;;9.80;70.80;;;;;;4990284;28;20031;-71
2021/01/01 12:58:29;;;;;;;15.10;10.43;;;9.80;70.60;;;;;;4990189;28;20045;-70
2021/01/01 13:00:54;;;;;;;15.00;9.80;;;9.80;70.50;;;;;;4988982;28;20039;-71
2021/01/01 13:03:23;;;;;;;15.63;9.68;;;9.70;70.70;;;;;;4990018;28;20035;-71
2021/01/01 13:05:49;;;;;;;16.73;9.73;;;9.70;71.00;;;;;;4989811;28;20040;-71
2021/01/01 13:08:17;;;;;;;16.13;9.27;;;9.80;71.10;;;;;;4989020;28;20030;-71
2021/01/01 13:10:42;;;;;;;15.93;9.90;;;9.70;71.10;;;;;;4988698;28;20133;-71
2021/01/01 13:13:08;;;;;;;14.05;9.07;;;9.70;71.30;;;;;;4970372;28;20117;-71
2021/01/01 13:15:34;;;;;;;20.40;10.60;;;9.70;71.60;;;;;;4984683;28;20030;-72
2021/01/01 13:18:00;;;;;;;18.92;9.77;;;9.60;71.60;;;;;;4963441;28;20046;-71
2021/01/01 13:20:25;;;;;;;15.13;9.88;;;9.50;71.70;;;;;;4987307;28;20069;-71
2021/01/01 13:22:51;;;;;;;15.75;9.05;;;9.60;71.80;;;;;;4989033;28;20041;-72
2021/01/01 13:25:21;;;;;;;15.50;9.45;;;9.60;71.70;;;;;;4972980;28;20034;-72
2021/01/01 13:27:46;;;;;;;13.20;8.52;;;9.60;71.80;;;;;;4989061;28;20042;-72
2021/01/01 13:30:20;;;;;;;14.85;10.00;;;9.60;71.80;;;;;;4962803;28;20053;-72
2021/01/01 13:32:54;;;;;;;17.77;10.07;;;9.70;71.80;;;;;;4954100;28;20035;-71
2021/01/01 13:35:19;;;;;;;21.05;12.77;;;9.70;71.70;;;;;;4953686;28;20034;-72
2021/01/01 13:37:48;;;;;;;17.90;10.90;;;9.80;71.60;;;;;;4989441;28;20568;-72
2021/01/01 13:40:14;;;;;;;20.35;11.77;;;9.90;71.40;;;;;;4989297;28;20042;-72
2021/01/01 13:42:40;;;;;;;18.70;11.73;;;10.00;71.30;;;;;;4989296;28;20034;-72
2021/01/01 13:45:09;;;;;;;19.52;12.57;;;10.00;71.20;;;;;;4989844;28;20042;-71
2021/01/01 13:47:35;;;;;;;20.05;12.38;;;10.10;71.10;;;;;;4988916;28;20030;-72